Neah Bay, WA

7:10 PM PDT on August 28, 2014 (GMT -0700)
Hoko | Change Station
CLOSE
Current Station
Personal Weather Station
Location: Sekiu, WA
Elevation: 56 ft
Nearby Weather Stations

Elev 56 ft 48.29 °N, 124.36 °W | Updated 2 minutes ago

Mostly Cloudy
Mostly Cloudy
59.5 °F
Feels Like 59.5 °F
N
0.0
Wind Variable Wind from WNW
Gusts 2.2 mph

Today
High -- | Low -- °F
--% Chance of Precip.
Yesterday
High -- | Low -- °F
Precip. -- in
6:30 AM 8:07 PM
Waxing Crescent, 11% visible
Pressure 30.08 in
Visibility 8.0 miles
Clouds Clear
Dew Point 58 °F
Humidity 94%
Rainfall 0.00 in
Snow Depth Not available.
UV 1 out of 12
Pollen 2.50 out of 12
Air Quality Not available.
Flu Activity Not available.
METAR KUIL 290153Z AUTO 31004KT 8SM CLR 17/13 A3008 RMK AO2 SLP186 T01670128

More Conditions Fewer Conditions

Pressure 30.08 in
Visibility 8.0 miles
Clouds Clear
Dew Point 58 °F
Humidity 94%
Rainfall 0.00 in
Snow Depth Not available.
UV 1 out of 12
Pollen 2.50 out of 12
Air Quality Not available.
Flu Activity Not available.
METAR KUIL 290153Z AUTO 31004KT 8SM CLR 17/13 A3008 RMK AO2 SLP186 T01670128

More Conditions Fewer Conditions

10-Day Weather Forecast

Almanac

Astronomy

Aug. 28, 2014 Rise Set
Actual Time 6:30 AM PDT 8:07 PM PDT
Civil Twilight 5:57 AM PDT 8:40 PM PDT
Nautical Twilight 5:17 AM PDT 9:20 PM PDT
Astronomical Twilight 4:33 AM PDT 10:03 PM PDT
Moon 9:46 AM PDT (8/28) 9:15 PM PDT (8/28)
Length of Visible Light 14h 42m
Length of Day
13h 37m
Tomorrow will be 3m 22s shorter.
Waxing Crescent, 11% of the Moon is Illuminated
Today
Waxing Crescent
Sep 2
First Quarter
Sep 8
Full
Sep 15
Last Quarter
Sep 24
New

Today's Extremes

State Highs State Lows

Community

WunderPhotos

Upload Photos

1,748,124 photos uploaded!

Nearby

Snow Depth

Station Depth Elevation
Dungeness 0 in 4100 ft
Elbow Lake 0 in 3200 ft
Alpine Meadows 0 in 3500 ft
Olallie Meadows 2 in 3700 ft
Meadows Pass 0 in 3500 ft

Earthquake Activity

City Distance Mag. Time & Date
No recent earthquake activity has been reported nearby.
Minimum magnitude displayed is 2.5.

Coastal Water Temperatures

Place Temperature
La Push, WA 48.9 °F
Port Angeles, WA 54.0 °F
Friday Harbor, WA 53.1 °F
Westport, WA 57.0 °F

Nearby Weather Stations